Time;durP1;ratioP1;P1;durP2;ratioP2;P2;SDS_P1;SDS_P2;PMS_P1;PMS_P2;Temp;Humidity;BMP_temperature;BMP_pressure;BME280_temperature;BME280_humidity;BME280_pressure;Samples;Min_cycle;Max_cycle;Signal;HPM_P1;HPM_P2
2023/03/13 00:01:59;;;;;;;21.85;4.85;;;;;;;7.87;60.43;99115.88;10426896;28;20139;-63
2023/03/13 00:07:02;;;;;;;23.88;5.30;;;;;;;8.06;60.51;99106.91;10430566;28;20269;-64
2023/03/13 00:12:04;;;;;;;20.85;5.00;;;;;;;8.29;60.29;99109.75;10426092;28;20504;-63
2023/03/13 00:17:05;;;;;;;20.08;5.22;;;;;;;8.52;59.93;99092.66;10428517;28;20048;-63
2023/03/13 00:22:07;;;;;;;21.70;4.45;;;;;;;8.61;59.70;99079.03;10427047;28;20532;-63
2023/03/13 00:27:09;;;;;;;20.05;4.78;;;;;;;8.65;59.84;99059.63;10428021;28;20045;-62
2023/03/13 00:32:10;;;;;;;24.40;6.00;;;;;;;8.63;60.19;99043.25;10428871;28;20041;-63
2023/03/13 00:37:12;;;;;;;24.38;4.30;;;;;;;8.70;60.06;99026.31;10427179;28;20048;-62
2023/03/13 00:42:14;;;;;;;26.63;7.20;;;;;;;8.75;60.11;99016.41;10426953;28;20044;-63
2023/03/13 00:47:15;;;;;;;25.85;5.85;;;;;;;8.85;59.94;99013.06;10411482;28;20421;-63
2023/03/13 00:52:17;;;;;;;27.73;6.90;;;;;;;8.89;60.02;98998.06;10426409;28;20166;-63
2023/03/13 00:57:19;;;;;;;23.52;5.68;;;;;;;9.01;59.86;99002.47;10425369;28;20514;-62
2023/03/13 01:02:20;;;;;;;24.23;6.60;;;;;;;9.11;59.78;98998.28;10426014;28;20240;-63
2023/03/13 01:07:22;;;;;;;24.52;6.70;;;;;;;9.24;59.60;98990.44;10428426;28;20048;-63
2023/03/13 01:12:24;;;;;;;22.42;6.47;;;;;;;9.37;59.36;98978.19;10426360;28;20048;-63
2023/03/13 01:17:26;;;;;;;23.73;6.38;;;;;;;9.44;59.25;98963.81;10423862;28;20337;-63
2023/03/13 01:22:27;;;;;;;21.50;5.13;;;;;;;9.59;58.92;98947.88;10420310;28;20540;-63
2023/03/13 01:27:29;;;;;;;22.17;5.50;;;;;;;9.65;58.75;98942.22;10426229;28;20052;-62
2023/03/13 01:32:34;;;;;;;23.25;4.97;;;;;;;9.74;58.79;98919.03;10426673;28;20742;-63
2023/03/13 01:37:36;;;;;;;21.55;4.10;;;;;;;9.76;58.90;98917.16;10426730;28;20429;-63
2023/03/13 01:42:54;;;;;;;16.75;4.35;;;;;;;9.70;59.42;98913.22;10427886;28;20067;-63
2023/03/13 01:47:56;;;;;;;23.40;3.88;;;;;;;9.69;59.65;98892.44;10430934;28;20056;-64
2023/03/13 01:52:58;;;;;;;19.95;4.00;;;;;;;9.77;59.72;98885.69;10446315;28;20048;-63
2023/03/13 01:58:00;;;;;;;23.23;4.72;;;;;;;9.75;60.46;98876.34;10432211;28;20049;-63
2023/03/13 02:03:10;;;;;;;20.90;4.18;;;;;;;9.73;60.94;98865.97;10446265;28;20052;-64
2023/03/13 02:08:20;;;;;;;20.43;4.00;;;;;;;9.69;61.65;98850.66;10433899;28;20040;-64
2023/03/13 02:13:22;;;;;;;19.97;4.00;;;;;;;9.53;61.96;98849.13;10433418;28;20540;-63
2023/03/13 02:18:24;;;;;;;18.85;3.83;;;;;;;9.54;62.20;98840.34;10429873;28;20496;-63
2023/03/13 02:23:41;;;;;;;17.35;3.92;;;;;;;9.50;62.19;98819.81;10430764;28;20052;-63
2023/03/13 02:28:42;;;;;;;13.02;3.58;;;;;;;9.53;62.33;98823.03;10413464;28;20037;-63
2023/03/13 02:33:44;;;;;;;15.82;3.35;;;;;;;9.63;61.97;98810.97;10432049;28;20310;-63
2023/03/13 02:38:54;;;;;;;12.73;3.13;;;;;;;9.75;61.97;98804.03;10413880;28;20079;-64
2023/03/13 02:43:55;;;;;;;17.23;3.65;;;;;;;9.77;61.82;98796.91;10432185;28;20052;-63
2023/03/13 02:48:58;;;;;;;12.40;3.08;;;;;;;9.80;61.95;98773.22;10429586;28;20052;-64
2023/03/13 02:54:05;;;;;;;13.30;3.20;;;;;;;9.82;62.44;98768.69;10414235;28;20205;-63
2023/03/13 02:59:07;;;;;;;11.30;2.83;;;;;;;9.82;62.81;98767.88;10432941;28;20052;-63
2023/03/13 03:04:08;;;;;;;16.17;3.28;;;;;;;9.78;63.40;98777.72;10436391;28;20061;-62
2023/03/13 03:09:10;;;;;;;11.85;2.70;;;;;;;9.75;63.99;98758.84;10438442;28;20044;-63
2023/03/13 03:14:12;;;;;;;12.48;3.22;;;;;;;9.74;64.30;98754.56;10437259;28;20041;-63
2023/03/13 03:19:14;;;;;;;10.40;2.60;;;;;;;9.71;64.86;98757.41;10439087;28;20055;-62
2023/03/13 03:24:16;;;;;;;11.15;3.13;;;;;;;9.63;65.36;98753.53;10438656;28;20098;-63
2023/03/13 03:29:17;;;;;;;9.82;3.10;;;;;;;9.63;65.59;98739.66;10438147;28;20416;-63
2023/03/13 03:34:19;;;;;;;12.77;2.70;;;;;;;9.57;66.19;98740.94;10439094;28;20049;-61
2023/03/13 03:39:21;;;;;;;9.45;2.60;;;;;;;9.50;66.76;98744.94;10439320;28;20048;-62
2023/03/13 03:44:23;;;;;;;9.25;2.45;;;;;;;9.51;66.92;98714.47;10437718;28;20049;-61
2023/03/13 03:49:24;;;;;;;9.23;2.53;;;;;;;9.53;66.89;98702.97;10434568;28;20413;-61
2023/03/13 03:54:26;;;;;;;4.53;2.00;;;;;;;9.59;67.18;98683.41;10436759;28;20401;-62
2023/03/13 03:59:28;;;;;;;4.45;1.70;;;;;;;9.58;67.19;98695.63;10435427;28;20477;-62
2023/03/13 04:04:29;;;;;;;5.07;2.00;;;;;;;9.76;67.09;98697.81;10434396;28;20215;-62
2023/03/13 04:09:31;;;;;;;3.70;1.77;;;;;;;9.79;66.95;98692.38;10430966;28;20766;-62
2023/03/13 04:14:33;;;;;;;3.97;1.63;;;;;;;9.84;66.93;98701.53;10431647;28;20080;-61
2023/03/13 04:19:34;;;;;;;6.75;1.80;;;;;;;9.92;66.78;98703.53;10426392;28;20503;-61
2023/03/13 04:24:36;;;;;;;3.65;1.50;;;;;;;9.92;66.84;98686.09;10410465;28;20045;-61
2023/03/13 04:29:38;;;;;;;3.13;1.45;;;;;;;10.05;66.70;98662.50;10430514;28;20041;-62
2023/03/13 04:34:39;;;;;;;2.80;1.35;;;;;;;10.09;66.67;98688.25;10429419;28;20045;-61
2023/03/13 04:39:41;;;;;;;1.92;1.13;;;;;;;10.07;66.74;98681.47;10427285;28;20076;-61
2023/03/13 04:44:43;;;;;;;3.50;1.33;;;;;;;10.07;66.88;98660.59;10429740;28;20512;-61
2023/03/13 04:49:44;;;;;;;2.95;1.30;;;;;;;10.18;66.79;98644.88;10428654;28;20053;-61
2023/03/13 04:54:46;;;;;;;1.90;1.02;;;;;;;10.16;66.95;98644.19;10429391;28;20044;-61
2023/03/13 04:59:48;;;;;;;2.97;1.20;;;;;;;10.28;66.79;98624.91;10428865;28;20063;-61
2023/03/13 05:04:50;;;;;;;2.88;1.20;;;;;;;10.35;66.55;98620.88;10429918;28;20044;-61
2023/03/13 05:09:52;;;;;;;4.18;1.50;;;;;;;10.37;67.01;98585.84;10428777;28;20821;-62
2023/03/13 05:14:54;;;;;;;3.10;1.10;;;;;;;10.45;66.97;98585.22;10429775;28;20489;-62
2023/03/13 05:19:56;;;;;;;2.28;1.08;;;;;;;10.44;67.30;98617.53;10433069;28;20060;-61
2023/03/13 05:24:58;;;;;;;4.90;2.22;;;;;;;10.39;67.91;98590.94;10436685;28;20052;-61
2023/03/13 05:29:59;;;;;;;4.70;2.40;;;;;;;10.50;67.92;98611.84;10438773;28;20696;-61
2023/03/13 05:35:01;;;;;;;3.08;1.70;;;;;;;10.58;68.10;98604.22;10434049;28;20068;-62
2023/03/13 05:40:03;;;;;;;3.60;1.33;;;;;;;10.65;68.13;98589.66;10437666;28;20049;-63
2023/03/13 05:45:05;;;;;;;8.48;5.15;;;;;;;10.67;67.91;98566.84;10436385;28;20044;-63
2023/03/13 05:50:07;;;;;;;4.13;2.00;;;;;;;10.73;68.17;98563.72;10435454;28;20051;-61
2023/03/13 05:55:09;;;;;;;4.60;2.60;;;;;;;10.71;68.33;98539.50;10437619;28;20048;-63
2023/03/13 06:00:12;;;;;;;2.03;1.10;;;;;;;10.79;68.28;98546.69;10435340;28;20053;-63
2023/03/13 06:05:14;;;;;;;2.50;1.20;;;;;;;10.85;68.29;98549.63;10437458;28;20055;-63
2023/03/13 06:10:16;;;;;;;3.63;1.30;;;;;;;10.99;68.23;98557.16;10434764;28;20056;-63
2023/03/13 06:15:17;;;;;;;2.33;1.20;;;;;;;11.07;67.92;98544.31;10436559;28;21090;-63
2023/03/13 06:20:19;;;;;;;1.85;1.02;;;;;;;11.17;67.78;98554.84;10434425;28;20048;-64
2023/03/13 06:25:21;;;;;;;2.38;1.10;;;;;;;11.26;67.48;98554.91;10437159;28;20877;-64
2023/03/13 06:30:24;;;;;;;3.15;1.15;;;;;;;11.42;67.15;98549.19;10432458;28;20504;-63
2023/03/13 06:35:25;;;;;;;2.15;1.00;;;;;;;11.46;67.53;98560.25;10433774;28;20045;-63
2023/03/13 06:40:27;;;;;;;2.90;1.17;;;;;;;11.63;66.39;98557.84;10433707;28;21807;-63
2023/03/13 06:45:29;;;;;;;1.77;1.10;;;;;;;11.71;66.07;98593.84;10436961;28;20481;-63
2023/03/13 06:50:30;;;;;;;2.42;0.90;;;;;;;11.75;66.02;98598.69;10436496;28;20442;-64
2023/03/13 06:55:32;;;;;;;2.15;1.20;;;;;;;11.90;65.77;98610.50;10432307;28;20053;-64
2023/03/13 07:00:34;;;;;;;2.20;1.10;;;;;;;11.98;65.29;98615.06;10432587;28;20052;-64
2023/03/13 07:05:36;;;;;;;2.05;1.10;;;;;;;12.06;65.16;98600.34;10451296;28;20056;-64
2023/03/13 07:10:41;;;;;;;2.70;1.17;;;;;;;12.15;65.11;98583.81;10433884;28;20045;-63
2023/03/13 07:15:42;;;;;;;5.75;1.38;;;;;;;12.40;63.97;98579.06;10441623;28;20479;-63
2023/03/13 07:20:50;;;;;;;2.90;1.25;;;;;;;12.49;63.90;98589.59;10427489;28;20309;-65
2023/03/13 07:25:54;;;;;;;2.67;1.20;;;;;;;12.62;63.12;98587.50;10426608;28;20560;-64
2023/03/13 07:31:07;;;;;;;3.72;1.40;;;;;;;12.63;62.86;98594.44;10426067;28;20434;-64
2023/03/13 07:36:09;;;;;;;3.72;1.60;;;;;;;12.45;63.09;98593.44;10429047;28;20131;-64
2023/03/13 07:41:12;;;;;;;3.97;1.75;;;;;;;12.44;63.21;98593.56;10429399;28;20045;-65
2023/03/13 07:46:20;;;;;;;4.55;1.90;;;;;;;12.51;62.74;98603.38;10433680;28;20312;-64
2023/03/13 07:51:24;;;;;;;3.35;1.70;;;;;;;12.62;62.72;98603.25;10429966;28;20056;-63
2023/03/13 07:56:43;;;;;;;3.65;1.92;;;;;;;12.58;62.45;98595.78;10428194;28;20048;-63
2023/03/13 08:01:45;;;;;;;6.22;2.03;;;;;;;12.60;62.09;98596.50;10430507;28;20053;-63
2023/03/13 08:06:46;;;;;;;6.13;2.00;;;;;;;12.64;61.92;98601.31;10430292;28;20140;-67
2023/03/13 08:11:48;;;;;;;4.85;1.70;;;;;;;12.59;62.22;98608.78;10433360;28;20044;-67
2023/03/13 08:16:50;;;;;;;10.95;2.28;;;;;;;12.54;62.40;98610.97;10435535;28;20540;-67
2023/03/13 08:21:51;;;;;;;5.65;2.15;;;;;;;12.58;62.33;98609.72;10430958;28;20682;-67
2023/03/13 08:26:53;;;;;;;6.70;2.15;;;;;;;12.58;62.49;98609.72;10444569;28;20064;-68
2023/03/13 08:31:55;;;;;;;4.97;1.90;;;;;;;12.64;61.94;98619.66;10428147;28;20158;-67
2023/03/13 08:36:57;;;;;;;6.25;2.30;;;;;;;12.60;61.94;98615.66;10411786;28;20044;-67
2023/03/13 08:41:58;;;;;;;5.95;1.95;;;;;;;12.69;61.48;98603.53;10430570;28;20437;-67
2023/03/13 08:47:00;;;;;;;5.53;2.15;;;;;;;12.79;61.27;98597.34;10428406;28;20040;-67
2023/03/13 08:52:04;;;;;;;4.82;1.90;;;;;;;13.05;60.66;98596.78;10432498;28;20201;-67
2023/03/13 08:57:06;;;;;;;6.13;2.25;;;;;;;13.08;60.35;98589.44;10428420;28;20041;-67
2023/03/13 09:02:08;;;;;;;8.23;2.42;;;;;;;13.11;60.29;98583.09;10428318;28;20053;-67
2023/03/13 09:07:10;;;;;;;7.88;2.70;;;;;;;13.23;60.33;98581.97;10411323;28;20483;-67
2023/03/13 09:12:11;;;;;;;6.28;2.08;;;;;;;13.25;60.05;98569.53;10428810;28;20048;-67
2023/03/13 09:17:30;;;;;;;5.20;2.03;;;;;;;13.64;59.50;98550.09;10428712;28;20049;-67
2023/03/13 09:22:31;;;;;;;5.30;2.03;;;;;;;14.03;58.70;98541.06;10426516;28;20513;-67
2023/03/13 09:27:33;;;;;;;6.55;1.90;;;;;;;14.08;58.20;98536.19;10430661;28;20049;-67
2023/03/13 09:32:35;;;;;;;7.22;2.30;;;;;;;13.92;58.86;98536.00;10427343;28;20507;-67
2023/03/13 09:37:36;;;;;;;5.57;2.03;;;;;;;14.03;58.54;98556.81;10429505;28;20040;-67
2023/03/13 09:42:59;;;;;;;8.02;2.35;;;;;;;13.55;59.44;98529.94;10428952;28;20120;-67
2023/03/13 09:48:22;;;;;;;4.97;1.90;;;;;;;13.66;60.08;98542.88;10431988;28;20049;-68
2023/03/13 09:53:34;;;;;;;7.10;2.10;;;;;;;13.61;60.17;98555.66;10444232;28;20041;-67
2023/03/13 09:58:42;;;;;;;6.28;2.05;;;;;;;13.59;61.16;98550.53;10429136;28;20052;-67
2023/03/13 10:03:51;;;;;;;8.13;2.80;;;;;;;13.94;61.00;98541.13;10431043;28;20136;-67
2023/03/13 10:08:53;;;;;;;6.88;2.17;;;;;;;14.28;60.39;98532.47;10433457;28;20045;-68
2023/03/13 10:14:18;;;;;;;5.03;2.13;;;;;;;14.53;60.09;98518.59;10428868;28;20374;-68
2023/03/13 10:19:27;;;;;;;5.22;2.25;;;;;;;14.36;60.24;98539.59;10412921;28;20044;-67
2023/03/13 10:24:28;;;;;;;5.20;2.25;;;;;;;14.47;60.36;98513.91;10428013;28;20059;-67
2023/03/13 10:29:30;;;;;;;6.65;2.20;;;;;;;14.82;59.27;98525.44;10427658;28;20232;-68
2023/03/13 10:34:59;;;;;;;6.88;2.20;;;;;;;14.78;59.15;98521.47;10427753;28;20045;-68
2023/03/13 10:40:24;;;;;;;8.32;2.13;;;;;;;14.92;59.43;98520.91;10427684;28;20045;-67
2023/03/13 10:45:31;;;;;;;4.60;1.95;;;;;;;14.66;60.34;98514.75;10423144;28;20136;-68
2023/03/13 10:50:34;;;;;;;5.90;2.28;;;;;;;14.83;60.79;98490.22;10430617;28;20182;-68
2023/03/13 10:55:43;;;;;;;4.55;2.17;;;;;;;15.02;60.36;98490.84;10426882;28;20127;-68
2023/03/13 11:00:44;;;;;;;5.70;2.10;;;;;;;14.80;60.40;98501.09;10423596;28;20049;-68
2023/03/13 11:06:01;;;;;;;4.85;2.20;;;;;;;14.24;62.27;98494.31;10427320;28;20220;-67
2023/03/13 11:11:14;;;;;;;4.88;2.10;;;;;;;14.08;62.74;98493.31;10428295;28;20516;-67
2023/03/13 11:16:49;;;;;;;3.42;2.03;;;;;;;13.72;64.38;98492.38;10424213;28;20552;-68
2023/03/13 11:22:24;;;;;;;5.55;2.40;;;;;;;13.87;63.85;98490.94;10427413;28;20060;-66
2023/03/13 11:27:31;;;;;;;4.93;2.50;;;;;;;13.85;64.05;98487.63;10399980;28;20159;-66
2023/03/13 11:32:59;;;;;;;5.90;2.80;;;;;;;13.54;65.41;98475.75;10428671;28;20392;-65
2023/03/13 11:38:07;;;;;;;8.65;2.92;;;;;;;13.64;65.14;98480.00;10429215;28;20048;-66
2023/03/13 11:43:39;;;;;;;5.47;2.58;;;;;;;13.68;65.25;98462.97;10427121;28;20934;-66
2023/03/13 11:49:19;;;;;;;4.85;2.50;;;;;;;13.81;64.58;98440.75;10427866;28;20057;-66
2023/03/13 11:54:39;;;;;;;6.70;2.75;;;;;;;14.08;63.88;98428.41;10425091;28;21804;-66
2023/03/13 12:00:13;;;;;;;6.68;2.97;;;;;;;14.07;63.79;98421.50;10426131;28;20055;-66
2023/03/13 12:05:18;;;;;;;5.18;2.30;;;;;;;14.05;63.82;98404.22;10440272;28;20056;-66
2023/03/13 12:10:29;;;;;;;5.53;2.65;;;;;;;13.95;63.79;98411.34;10425508;28;20045;-66
2023/03/13 12:15:39;;;;;;;6.53;3.00;;;;;;;13.88;63.58;98395.34;10426949;28;20056;-66
2023/03/13 12:20:55;;;;;;;6.72;2.72;;;;;;;13.89;63.21;98390.91;10437880;28;20058;-66
2023/03/13 12:26:00;;;;;;;6.78;2.78;;;;;;;13.88;63.11;98382.19;10452515;28;20049;-65
2023/03/13 12:31:16;;;;;;;6.20;2.65;;;;;;;13.88;63.00;98376.94;10465233;28;20056;-68
2023/03/13 12:36:39;;;;;;;6.38;2.72;;;;;;;13.96;63.26;98361.28;10447538;28;20060;-65
2023/03/13 12:41:53;;;;;;;6.10;2.90;;;;;;;14.18;62.88;98336.31;10432988;28;20048;-66
2023/03/13 12:47:01;;;;;;;5.28;2.90;;;;;;;14.31;62.20;98339.34;10421931;28;20496;-65
2023/03/13 12:52:33;;;;;;;4.55;2.75;;;;;;;14.50;61.98;98326.03;10428089;28;20055;-66
2023/03/13 12:57:47;;;;;;;5.20;2.72;;;;;;;14.58;61.56;98313.75;10435654;28;20430;-65
2023/03/13 13:03:35;;;;;;;7.50;2.65;;;;;;;14.39;60.97;98305.25;10423789;28;20055;-65
2023/03/13 13:08:42;;;;;;;5.10;2.75;;;;;;;14.37;61.05;98289.59;10403478;28;20475;-65
2023/03/13 13:13:44;;;;;;;5.47;2.55;;;;;;;14.51;61.11;98269.84;10464892;28;20044;-66
2023/03/13 13:18:46;;;;;;;5.00;2.45;;;;;;;14.67;60.90;98255.94;10428302;28;20063;-66
2023/03/13 13:23:52;;;;;;;4.60;2.15;;;;;;;14.54;60.92;98245.84;10419072;28;20505;-66
2023/03/13 13:28:56;;;;;;;4.97;2.40;;;;;;;14.66;61.32;98230.56;10424518;28;20412;-65
2023/03/13 13:33:58;;;;;;;6.07;2.75;;;;;;;15.04;60.68;98225.63;10458115;28;20041;-65
2023/03/13 13:39:00;;;;;;;4.10;2.03;;;;;;;15.10;60.38;98198.63;10427015;28;20489;-65
2023/03/13 13:44:20;;;;;;;6.72;2.10;;;;;;;15.23;59.40;98185.00;10429494;28;20752;-65
2023/03/13 13:49:34;;;;;;;3.95;1.88;;;;;;;15.66;58.64;98173.34;10428909;28;20045;-65
2023/03/13 13:54:44;;;;;;;3.25;1.63;;;;;;;15.59;58.02;98189.00;10431526;28;20041;-65
2023/03/13 13:59:50;;;;;;;1.93;1.30;;;;;;;15.42;58.48;98171.53;10431539;28;20049;-65
2023/03/13 14:05:03;;;;;;;4.53;1.65;;;;;;;15.38;57.81;98171.03;10436644;28;20510;-65
2023/03/13 14:10:33;;;;;;;2.95;1.60;;;;;;;15.25;58.24;98172.50;10432496;28;20535;-66
2023/03/13 14:15:35;;;;;;;3.25;1.50;;;;;;;15.06;58.95;98152.56;10431307;28;20524;-65
2023/03/13 14:20:52;;;;;;;3.60;1.50;;;;;;;15.03;58.75;98142.38;10432310;28;20056;-66
2023/03/13 14:25:53;;;;;;;4.13;1.63;;;;;;;15.27;58.72;98112.56;10428844;28;20056;-65
2023/03/13 14:30:57;;;;;;;48.47;3.10;;;;;;;15.51;58.01;98112.59;10428823;28;20292;-66
2023/03/13 14:35:58;;;;;;;5.18;2.15;;;;;;;15.38;57.86;98073.56;10430374;28;20057;-66
2023/03/13 14:41:00;;;;;;;3.80;1.77;;;;;;;15.51;57.67;98059.09;10470106;28;20050;-66
2023/03/13 14:46:20;;;;;;;4.93;1.88;;;;;;;15.58;56.58;98055.63;10433430;28;20622;-65
2023/03/13 14:51:25;;;;;;;4.72;1.60;;;;;;;15.68;56.35;98045.72;10468971;28;20053;-66
2023/03/13 14:56:37;;;;;;;4.78;1.83;;;;;;;15.57;56.80;98059.22;10430042;28;20249;-65
2023/03/13 15:01:39;;;;;;;3.90;1.55;;;;;;;15.51;56.83;98041.47;10431392;28;20401;-66
2023/03/13 15:06:40;;;;;;;3.85;1.40;;;;;;;15.28;57.25;98048.41;10428177;28;20044;-65
2023/03/13 15:12:00;;;;;;;3.20;1.45;;;;;;;15.28;57.04;98035.22;10433448;28;20067;-65
2023/03/13 15:17:05;;;;;;;3.03;1.40;;;;;;;15.19;57.09;98015.97;10409548;28;20060;-65
2023/03/13 15:22:13;;;;;;;3.30;1.60;;;;;;;15.30;56.71;98033.25;10456148;28;20060;-66
2023/03/13 15:27:17;;;;;;;2.40;1.30;;;;;;;15.12;56.77;98017.63;10428767;28;20053;-65
2023/03/13 15:32:26;;;;;;;3.20;1.80;;;;;;;15.16;56.92;98005.75;10426919;28;20904;-66
2023/03/13 15:37:29;;;;;;;4.57;1.40;;;;;;;15.15;57.15;98016.47;10457639;28;20372;-66
2023/03/13 15:42:30;;;;;;;3.15;1.63;;;;;;;15.02;57.78;97998.53;10452081;28;20049;-66
2023/03/13 15:47:32;;;;;;;3.75;1.40;;;;;;;15.45;56.84;97980.72;10454543;28;20059;-65
2023/03/13 15:52:34;;;;;;;3.22;1.75;;;;;;;15.73;56.30;97980.16;10424265;28;20136;-66
2023/03/13 15:57:42;;;;;;;2.47;1.38;;;;;;;15.98;55.63;97957.94;10424989;28;20049;-65
2023/03/13 16:02:44;;;;;;;3.78;1.30;;;;;;;15.94;55.14;97961.91;10425864;28;20665;-66
2023/03/13 16:07:46;;;;;;;4.28;1.20;;;;;;;15.69;54.38;97927.94;10437743;28;20064;-66
2023/03/13 16:12:47;;;;;;;2.35;1.17;;;;;;;15.36;54.03;97920.16;10440026;28;20052;-66
2023/03/13 16:17:49;;;;;;;2.78;1.42;;;;;;;15.30;53.73;97902.41;10426365;28;20224;-66
2023/03/13 16:22:51;;;;;;;3.03;1.20;;;;;;;15.33;53.85;97917.00;10427582;28;20052;-66
2023/03/13 16:27:55;;;;;;;2.92;1.60;;;;;;;15.26;53.47;97897.63;10468983;28;20493;-66
2023/03/13 16:32:58;;;;;;;4.78;1.20;;;;;;;15.23;53.09;97916.38;10438005;28;20316;-65
2023/03/13 16:38:00;;;;;;;2.95;1.23;;;;;;;15.21;53.62;97903.41;10461631;28;20463;-66
2023/03/13 16:43:01;;;;;;;2.38;1.13;;;;;;;15.39;53.16;97888.19;10427328;28;20416;-66
2023/03/13 16:48:03;;;;;;;2.53;1.17;;;;;;;15.34;52.83;97864.19;10459862;28;20044;-66
2023/03/13 16:53:05;;;;;;;3.10;1.40;;;;;;;15.20;52.84;97877.25;10435118;28;20044;-66
2023/03/13 16:58:11;;;;;;;5.07;1.60;;;;;;;15.21;52.48;97878.88;10426033;28;20049;-66
2023/03/13 17:03:13;;;;;;;3.58;1.30;;;;;;;15.19;52.82;97880.84;10435037;28;20052;-66
2023/03/13 17:08:14;;;;;;;1.92;1.20;;;;;;;15.23;52.52;97887.44;10406969;28;20537;-66
2023/03/13 17:13:18;;;;;;;2.38;1.17;;;;;;;15.14;52.45;97872.66;10439540;28;20048;-66
2023/03/13 17:18:20;;;;;;;1.70;1.20;;;;;;;14.92;52.69;97879.44;10474981;28;20128;-66
2023/03/13 17:23:22;;;;;;;2.20;1.20;;;;;;;14.78;52.68;97881.97;10441602;28;20493;-66
2023/03/13 17:28:24;;;;;;;1.77;1.20;;;;;;;14.67;52.82;97901.56;10478295;28;20131;-65
2023/03/13 17:33:26;;;;;;;2.67;1.40;;;;;;;14.70;52.73;97876.69;10418706;28;20423;-66
2023/03/13 17:38:28;;;;;;;5.20;1.90;;;;;;;14.69;53.08;97888.22;10474217;28;20162;-66
2023/03/13 17:43:29;;;;;;;2.22;1.20;;;;;;;14.54;53.06;97888.91;10441265;28;20056;-66
2023/03/13 17:48:31;;;;;;;2.33;1.20;;;;;;;14.58;53.24;97869.16;10458224;28;20049;-66
2023/03/13 17:53:33;;;;;;;2.35;1.33;;;;;;;14.36;53.19;97834.81;10436031;28;20041;-66
2023/03/13 17:58:34;;;;;;;2.78;1.45;;;;;;;14.33;53.36;97808.84;10432644;28;20548;-65
2023/03/13 18:03:36;;;;;;;3.75;1.40;;;;;;;14.30;53.61;97817.06;10440009;28;20076;-61
2023/03/13 18:08:38;;;;;;;1.90;1.15;;;;;;;14.23;53.66;97809.00;10468207;28;20049;-61
2023/03/13 18:13:39;;;;;;;4.15;1.40;;;;;;;14.22;53.68;97825.78;10431540;28;20044;-62
2023/03/13 18:18:41;;;;;;;3.08;1.52;;;;;;;14.16;54.15;97815.94;10447342;28;20052;-62
2023/03/13 18:23:43;;;;;;;3.22;1.42;;;;;;;14.08;54.39;97807.22;10431056;28;20201;-62
2023/03/13 18:28:45;;;;;;;3.88;1.40;;;;;;;13.94;54.43;97807.88;10426160;28;20143;-61
2023/03/13 18:33:47;;;;;;;4.13;1.42;;;;;;;14.04;54.34;97812.00;10430636;28;20052;-62
2023/03/13 18:38:49;;;;;;;2.50;1.30;;;;;;;13.93;54.25;97820.19;10431174;28;20424;-62
2023/03/13 18:43:51;;;;;;;3.78;1.70;;;;;;;13.83;53.97;97834.47;10425202;28;20092;-62
2023/03/13 18:48:54;;;;;;;3.30;1.42;;;;;;;13.85;53.62;97820.19;10423792;28;20045;-61
2023/03/13 18:53:55;;;;;;;3.25;1.33;;;;;;;13.77;52.97;97793.91;10436728;28;20493;-62
2023/03/13 18:58:58;;;;;;;3.80;1.38;;;;;;;13.73;52.58;97800.47;10442299;28;20075;-61
2023/03/13 19:04:00;;;;;;;4.22;1.35;;;;;;;13.67;51.64;97806.38;10431322;28;20410;-62
2023/03/13 19:09:10;;;;;;;1.95;1.33;;;;;;;13.62;50.67;97758.75;10436973;28;20120;-62
2023/03/13 19:14:32;;;;;;;2.60;1.10;;;;;;;13.66;50.97;97757.44;10430346;28;20359;-61
2023/03/13 19:19:34;;;;;;;5.32;1.98;;;;;;;13.65;50.38;97750.56;10429607;28;20491;-62
2023/03/13 19:24:36;;;;;;;2.25;1.42;;;;;;;13.54;49.81;97790.25;10431028;28;20053;-64
2023/03/13 19:29:37;;;;;;;6.20;2.70;;;;;;;13.53;49.66;97807.00;10434161;28;20048;-64
2023/03/13 19:34:39;;;;;;;3.28;1.70;;;;;;;13.49;49.14;97687.53;10434560;28;20312;-63
2023/03/13 19:39:42;;;;;;;3.78;2.05;;;;;;;13.30;48.91;97758.69;10447448;28;20502;-63
2023/03/13 19:44:44;;;;;;;3.53;1.90;;;;;;;13.32;49.01;97782.97;10431018;28;20489;-64
2023/03/13 19:49:48;;;;;;;4.75;2.97;;;;;;;13.18;49.16;97746.84;10433788;28;20080;-64
2023/03/13 19:54:53;;;;;;;4.50;1.20;;;;;;;13.00;48.90;97723.34;10408030;28;20045;-63
2023/03/13 19:59:55;;;;;;;3.25;1.40;;;;;;;12.90;48.84;97748.91;10429587;28;20052;-60
2023/03/13 20:04:58;;;;;;;3.55;1.50;;;;;;;12.73;49.41;97763.75;10435001;28;20056;-63
2023/03/13 20:09:59;;;;;;;1.92;1.10;;;;;;;12.60;48.90;97738.97;10432640;28;20060;-63
2023/03/13 20:15:01;;;;;;;1.63;1.20;;;;;;;12.52;49.49;97747.59;10425885;28;20717;-63
2023/03/13 20:20:06;;;;;;;4.90;2.33;;;;;;;12.39;49.38;97739.34;10454306;28;20056;-63
2023/03/13 20:25:09;;;;;;;3.95;1.88;;;;;;;12.30;49.37;97708.81;10445757;28;20064;-64
2023/03/13 20:30:11;;;;;;;3.70;1.90;;;;;;;12.26;49.95;97751.16;10435657;28;20055;-64
2023/03/13 20:35:13;;;;;;;6.82;2.33;;;;;;;12.13;50.27;97757.66;10430047;28;20045;-63
2023/03/13 20:40:14;;;;;;;3.33;1.50;;;;;;;11.96;50.47;97757.69;10424394;28;20076;-63
2023/03/13 20:45:16;;;;;;;3.67;1.45;;;;;;;11.94;50.86;97752.63;10433385;28;20053;-64
2023/03/13 20:50:18;;;;;;;2.38;1.40;;;;;;;11.88;51.15;97758.47;10427291;28;20417;-61
2023/03/13 20:55:20;;;;;;;3.55;1.45;;;;;;;11.86;51.42;97741.25;10427891;28;20056;-64
2023/03/13 21:00:22;;;;;;;4.72;2.50;;;;;;;11.78;51.82;97760.34;10427946;28;20056;-62
2023/03/13 21:05:24;;;;;;;6.70;3.10;;;;;;;11.70;52.03;97738.50;10421263;28;20793;-63
2023/03/13 21:10:26;;;;;;;3.97;1.40;;;;;;;11.64;51.79;97728.66;10426204;28;20700;-64
2023/03/13 21:15:27;;;;;;;2.42;1.00;;;;;;;11.50;52.33;97735.22;10424775;28;20047;-63
2023/03/13 21:20:30;;;;;;;4.22;1.17;;;;;;;11.43;52.75;97749.06;10425790;28;20053;-63
2023/03/13 21:25:31;;;;;;;2.40;1.20;;;;;;;11.34;52.98;97773.53;10430642;28;20045;-65
2023/03/13 21:30:33;;;;;;;2.83;1.30;;;;;;;11.11;53.40;97788.81;10465827;28;20045;-62
2023/03/13 21:35:34;;;;;;;2.78;1.20;;;;;;;10.90;54.10;97796.88;10431022;28;20060;-62
2023/03/13 21:40:38;;;;;;;8.57;1.50;;;;;;;10.87;54.46;97788.47;10421078;28;20414;-62
2023/03/13 21:45:40;;;;;;;5.10;1.27;;;;;;;10.82;55.15;97817.69;10431776;28;20045;-62
2023/03/13 21:50:42;;;;;;;2.70;1.30;;;;;;;10.83;54.77;97805.44;10423948;28;20072;-63
2023/03/13 21:55:44;;;;;;;2.40;1.25;;;;;;;10.78;54.85;97800.66;10405378;28;20048;-62
2023/03/13 22:00:45;;;;;;;2.00;1.05;;;;;;;10.66;55.21;97800.97;10429999;28;20119;-62
2023/03/13 22:05:47;;;;;;;2.13;1.05;;;;;;;10.67;55.28;97803.44;10431749;28;20405;-62
2023/03/13 22:10:51;;;;;;;2.53;1.02;;;;;;;10.76;55.13;97814.84;10431690;28;20964;-62
2023/03/13 22:15:52;;;;;;;2.00;1.10;;;;;;;10.76;55.25;97807.81;10431237;28;20552;-63
2023/03/13 22:20:58;;;;;;;2.25;1.20;;;;;;;10.80;55.48;97803.13;10428537;28;20052;-62
2023/03/13 22:26:00;;;;;;;3.45;1.10;;;;;;;10.88;55.63;97806.66;10427467;28;20413;-62
2023/03/13 22:31:03;;;;;;;5.22;2.08;;;;;;;10.94;55.69;97815.72;10426304;28;20527;-62
2023/03/13 22:36:05;;;;;;;4.45;1.65;;;;;;;11.01;55.46;97814.97;10429749;28;20037;-63
2023/03/13 22:41:11;;;;;;;4.80;1.75;;;;;;;10.98;55.74;97825.75;10430285;28;20049;-63
2023/03/13 22:46:13;;;;;;;2.83;1.40;;;;;;;10.95;55.98;97818.19;10429310;28;20275;-62
2023/03/13 22:51:19;;;;;;;4.95;1.70;;;;;;;11.01;56.17;97806.34;10430635;28;20052;-63
2023/03/13 22:56:21;;;;;;;2.92;1.30;;;;;;;11.09;56.23;97799.41;10429464;28;20066;-62
2023/03/13 23:01:22;;;;;;;2.75;1.45;;;;;;;11.17;55.89;97781.19;10433813;28;20055;-63
2023/03/13 23:06:25;;;;;;;3.53;1.67;;;;;;;11.24;55.92;97777.03;10427054;28;20528;-63
2023/03/13 23:11:27;;;;;;;3.60;1.58;;;;;;;11.26;55.92;97762.00;10427536;28;20171;-62
2023/03/13 23:16:29;;;;;;;3.92;1.70;;;;;;;11.30;55.84;97758.13;10429396;28;20554;-62
2023/03/13 23:21:30;;;;;;;4.70;1.50;;;;;;;11.19;56.30;97768.78;10442776;28;20057;-63
2023/03/13 23:26:32;;;;;;;4.60;1.98;;;;;;;11.17;56.44;97764.69;10455940;28;20056;-63
2023/03/13 23:31:34;;;;;;;2.85;1.20;;;;;;;11.18;56.32;97771.56;10433636;28;20507;-62
2023/03/13 23:36:35;;;;;;;3.33;1.33;;;;;;;11.22;56.36;97776.34;10444055;28;20060;-62